createdAt,value
2022-12-23T00:00:40.293Z,998.24
2022-12-23T00:01:40.383Z,998.27
2022-12-23T00:02:40.500Z,998.25
2022-12-23T00:03:40.480Z,998.25
2022-12-23T00:04:40.289Z,998.26
2022-12-23T00:05:40.261Z,998.19
2022-12-23T00:06:40.231Z,998.20
2022-12-23T00:07:40.206Z,998.21
2022-12-23T00:08:40.229Z,998.20
2022-12-23T00:09:40.211Z,998.22
2022-12-23T00:10:40.240Z,998.20
2022-12-23T00:11:40.171Z,998.20
2022-12-23T00:12:40.191Z,998.24
2022-12-23T00:13:40.146Z,998.23
2022-12-23T00:14:40.123Z,998.18
2022-12-23T00:15:40.161Z,998.14
2022-12-23T00:16:40.134Z,998.13
2022-12-23T00:17:40.108Z,998.07
2022-12-23T00:18:40.093Z,998.03
2022-12-23T00:19:40.084Z,998.02
2022-12-23T00:20:40.112Z,998.01
2022-12-23T00:21:40.055Z,997.99
2022-12-23T00:22:40.055Z,997.98
2022-12-23T00:23:40.040Z,997.97
2022-12-23T00:24:40.027Z,997.95
2022-12-23T00:25:40.069Z,997.94
2022-12-23T00:26:40.005Z,997.90
2022-12-23T00:27:40.000Z,997.90
2022-12-23T00:28:39.963Z,997.88
2022-12-23T00:29:39.957Z,997.90
2022-12-23T00:30:39.995Z,997.91
2022-12-23T00:31:39.993Z,997.95
2022-12-23T00:32:39.939Z,997.92
2022-12-23T00:33:39.927Z,997.94
2022-12-23T00:34:39.911Z,997.93
2022-12-23T00:35:39.984Z,997.92
2022-12-23T00:36:40.067Z,997.89
2022-12-23T00:37:39.892Z,997.88
2022-12-23T00:38:39.862Z,997.88
2022-12-23T00:39:39.859Z,997.86
2022-12-23T00:40:39.891Z,997.86
2022-12-23T00:41:39.849Z,997.79
2022-12-23T00:42:39.818Z,997.83
2022-12-23T00:43:39.803Z,997.81
2022-12-23T00:44:39.795Z,997.81
2022-12-23T00:45:39.893Z,997.78
2022-12-23T00:46:39.766Z,997.79
2022-12-23T00:47:39.760Z,997.81
2022-12-23T00:48:39.768Z,997.79
2022-12-23T00:49:39.743Z,997.77
2022-12-23T00:50:39.768Z,997.77
2022-12-23T00:51:39.719Z,997.74
2022-12-23T00:52:39.709Z,997.72
2022-12-23T00:53:39.705Z,997.72
2022-12-23T00:54:39.682Z,997.70
2022-12-23T00:55:39.745Z,997.73
2022-12-23T00:56:39.650Z,997.75
2022-12-23T00:57:39.634Z,997.73
2022-12-23T00:58:39.628Z,997.63
2022-12-23T00:59:39.621Z,997.66
2022-12-23T01:00:39.660Z,997.62
2022-12-23T01:01:39.744Z,997.61
2022-12-23T01:02:39.705Z,997.60
2022-12-23T01:03:39.684Z,997.60
2022-12-23T01:04:39.563Z,997.54
2022-12-23T01:05:39.633Z,997.53
2022-12-23T01:06:39.536Z,997.54
2022-12-23T01:07:39.533Z,997.54
2022-12-23T01:08:39.523Z,997.54
2022-12-23T01:09:39.522Z,997.57
2022-12-23T01:10:39.546Z,997.58
2022-12-23T01:11:39.475Z,997.51
2022-12-23T01:12:39.468Z,997.53
2022-12-23T01:13:39.472Z,997.52
2022-12-23T01:14:39.452Z,997.56
2022-12-23T01:15:39.491Z,997.56
2022-12-23T01:16:39.448Z,997.55
2022-12-23T01:17:39.429Z,997.55
2022-12-23T01:18:39.389Z,997.56
2022-12-23T01:19:39.403Z,997.51
2022-12-23T01:20:39.431Z,997.56
2022-12-23T01:21:39.381Z,997.56
2022-12-23T01:22:39.349Z,997.54
2022-12-23T01:23:39.362Z,997.57
2022-12-23T01:24:39.331Z,997.55
2022-12-23T01:25:39.433Z,997.54
2022-12-23T01:26:39.289Z,997.52
2022-12-23T01:27:39.282Z,997.51
2022-12-23T01:28:39.271Z,997.48
2022-12-23T01:29:39.271Z,997.47
2022-12-23T01:30:39.308Z,997.45
2022-12-23T01:31:39.294Z,997.44
2022-12-23T01:32:39.233Z,997.45
2022-12-23T01:33:39.259Z,997.42
2022-12-23T01:34:39.218Z,997.46
2022-12-23T01:35:39.251Z,997.44
2022-12-23T01:36:39.183Z,997.41
2022-12-23T01:37:39.185Z,997.38
2022-12-23T01:38:39.161Z,997.37
2022-12-23T01:39:39.198Z,997.36
2022-12-23T01:40:39.137Z,997.32
2022-12-23T01:41:39.196Z,997.31
2022-12-23T01:42:39.109Z,997.31
2022-12-23T01:43:39.115Z,997.32
2022-12-23T01:44:39.094Z,997.33
2022-12-23T01:45:39.139Z,997.23
2022-12-23T01:46:39.116Z,997.29
2022-12-23T01:47:39.059Z,997.33
2022-12-23T01:48:39.044Z,997.26
2022-12-23T01:49:39.031Z,997.31
2022-12-23T01:50:39.048Z,997.31
2022-12-23T01:51:39.061Z,997.27
2022-12-23T01:52:39.007Z,997.29
2022-12-23T01:53:38.993Z,997.29
2022-12-23T01:54:38.991Z,997.31
2022-12-23T01:55:38.984Z,997.32
2022-12-23T01:56:39.000Z,997.32
2022-12-23T01:57:38.942Z,997.25
2022-12-23T01:58:38.936Z,997.29
2022-12-23T01:59:38.931Z,997.29
2022-12-23T02:00:38.928Z,997.24
2022-12-23T02:01:39.061Z,997.23
2022-12-23T02:02:39.029Z,997.20
2022-12-23T02:03:38.942Z,997.24
2022-12-23T02:04:38.867Z,997.20
2022-12-23T02:05:38.859Z,997.22
2022-12-23T02:06:38.895Z,997.19
2022-12-23T02:07:38.827Z,997.20
2022-12-23T02:08:38.816Z,997.15
2022-12-23T02:09:38.822Z,997.15
2022-12-23T02:10:38.790Z,997.15
2022-12-23T02:11:38.831Z,997.12
2022-12-23T02:12:38.788Z,997.08
2022-12-23T02:13:38.772Z,997.06
2022-12-23T02:14:38.750Z,997.07
2022-12-23T02:15:38.749Z,997.02
2022-12-23T02:16:38.861Z,997.03
2022-12-23T02:17:38.715Z,996.99
2022-12-23T02:18:38.719Z,997.01
2022-12-23T02:19:38.729Z,997.01
2022-12-23T02:20:38.682Z,997.05
2022-12-23T02:21:38.715Z,997.05
2022-12-23T02:22:38.667Z,997.03
2022-12-23T02:23:38.668Z,997.07
2022-12-23T02:24:38.631Z,997.04
2022-12-23T02:25:38.619Z,997.05
2022-12-23T02:26:38.647Z,997.09
2022-12-23T02:27:38.598Z,997.03
2022-12-23T02:28:38.583Z,997.00
2022-12-23T02:29:38.578Z,996.92
2022-12-23T02:30:38.609Z,996.97
2022-12-23T02:31:38.597Z,996.90
2022-12-23T02:32:38.546Z,996.84
2022-12-23T02:33:38.535Z,996.81
2022-12-23T02:34:38.518Z,996.85
2022-12-23T02:35:38.613Z,996.87
2022-12-23T02:36:38.531Z,996.83
2022-12-23T02:37:38.491Z,996.81
2022-12-23T02:38:38.469Z,996.85
2022-12-23T02:39:38.465Z,996.84
2022-12-23T02:40:38.450Z,996.82
2022-12-23T02:41:38.481Z,996.81
2022-12-23T02:42:38.424Z,996.82
2022-12-23T02:43:38.416Z,996.82
2022-12-23T02:44:38.389Z,996.80
2022-12-23T02:45:38.398Z,996.70
2022-12-23T02:46:38.611Z,996.77
2022-12-23T02:47:38.366Z,996.73
2022-12-23T02:48:38.357Z,996.70
2022-12-23T02:49:38.352Z,996.70
2022-12-23T02:50:38.359Z,996.65
2022-12-23T02:51:38.372Z,996.67
2022-12-23T02:52:38.315Z,996.65
2022-12-23T02:53:38.303Z,996.70
2022-12-23T02:54:38.277Z,996.69
2022-12-23T02:55:38.280Z,996.68
2022-12-23T02:56:38.296Z,996.64
2022-12-23T02:57:38.254Z,996.68
2022-12-23T02:58:38.236Z,996.65
2022-12-23T02:59:38.234Z,996.65
2022-12-23T03:00:38.216Z,996.62
2022-12-23T03:01:38.373Z,996.63
2022-12-23T03:02:38.365Z,996.57
2022-12-23T03:03:38.267Z,996.58
2022-12-23T03:04:38.212Z,996.60
2022-12-23T03:05:38.164Z,996.64
2022-12-23T03:06:38.197Z,996.64
2022-12-23T03:07:38.127Z,996.64
2022-12-23T03:08:38.122Z,996.62
2022-12-23T03:09:38.113Z,996.63
2022-12-23T03:10:38.104Z,996.64
2022-12-23T03:11:38.137Z,996.64
2022-12-23T03:12:38.087Z,996.66
2022-12-23T03:13:38.069Z,996.64
2022-12-23T03:14:38.060Z,996.62
2022-12-23T03:15:38.149Z,996.63
2022-12-23T03:16:38.075Z,996.56
2022-12-23T03:17:38.035Z,996.57
2022-12-23T03:18:38.010Z,996.58
2022-12-23T03:19:38.001Z,996.57
2022-12-23T03:20:37.989Z,996.54
2022-12-23T03:21:38.028Z,996.54
2022-12-23T03:22:37.971Z,996.50
2022-12-23T03:23:37.954Z,996.48
2022-12-23T03:24:37.931Z,996.51
2022-12-23T03:25:37.936Z,996.49
2022-12-23T03:26:37.954Z,996.52
2022-12-23T03:27:37.907Z,996.49
2022-12-23T03:28:37.903Z,996.53
2022-12-23T03:29:37.883Z,996.46
2022-12-23T03:30:37.885Z,996.49
2022-12-23T03:31:38.034Z,996.42
2022-12-23T03:32:37.862Z,996.39
2022-12-23T03:33:37.833Z,996.39
2022-12-23T03:34:37.831Z,996.37
2022-12-23T03:35:37.820Z,996.34
2022-12-23T03:36:37.871Z,996.37
2022-12-23T03:37:37.798Z,996.33
2022-12-23T03:38:37.785Z,996.37
2022-12-23T03:39:37.790Z,996.32
2022-12-23T03:40:37.747Z,996.35
2022-12-23T03:41:37.755Z,996.34
2022-12-23T03:42:37.781Z,996.32
2022-12-23T03:43:37.720Z,996.36
2022-12-23T03:44:37.717Z,996.29
2022-12-23T03:45:39.730Z,996.32
2022-12-23T03:46:37.762Z,996.28
2022-12-23T03:47:37.720Z,996.35
2022-12-23T03:48:37.681Z,996.33
2022-12-23T03:49:37.689Z,996.31
2022-12-23T03:50:37.661Z,996.33
2022-12-23T03:51:37.629Z,996.33
2022-12-23T03:52:37.675Z,996.32
2022-12-23T03:53:37.620Z,996.34
2022-12-23T03:54:37.607Z,996.31
2022-12-23T03:55:37.606Z,996.28
2022-12-23T03:56:37.639Z,996.26
2022-12-23T03:57:37.618Z,996.25
2022-12-23T03:58:37.551Z,996.27
2022-12-23T03:59:37.551Z,996.25
2022-12-23T04:00:37.532Z,996.23
2022-12-23T04:01:37.700Z,996.23
2022-12-23T04:02:37.666Z,996.20
2022-12-23T04:03:37.544Z,996.24
2022-12-23T04:04:37.497Z,996.25
2022-12-23T04:05:37.490Z,996.24
2022-12-23T04:06:37.471Z,996.24
2022-12-23T04:07:37.505Z,996.27
2022-12-23T04:08:37.440Z,996.26
2022-12-23T04:09:37.436Z,996.26
2022-12-23T04:10:37.415Z,996.21
2022-12-23T04:11:37.416Z,996.29
2022-12-23T04:12:37.443Z,996.29
2022-12-23T04:13:37.395Z,996.32
2022-12-23T04:14:37.401Z,996.16
2022-12-23T04:15:37.388Z,996.20
2022-12-23T04:16:37.441Z,996.21
2022-12-23T04:17:37.405Z,996.21
2022-12-23T04:18:37.326Z,996.21
2022-12-23T04:19:37.325Z,996.22
2022-12-23T04:20:37.310Z,996.20
2022-12-23T04:21:37.311Z,996.19
2022-12-23T04:22:37.330Z,996.21
2022-12-23T04:23:37.302Z,996.20
2022-12-23T04:24:37.262Z,996.21
2022-12-23T04:25:37.255Z,996.21
2022-12-23T04:26:37.235Z,996.20
2022-12-23T04:27:37.283Z,996.14
2022-12-23T04:28:37.221Z,996.18
2022-12-23T04:29:37.239Z,996.19
2022-12-23T04:30:37.191Z,996.23
2022-12-23T04:31:37.220Z,996.23
2022-12-23T04:32:37.223Z,996.26
2022-12-23T04:33:37.166Z,996.25
2022-12-23T04:34:37.169Z,996.23
2022-12-23T04:35:37.144Z,996.25
2022-12-23T04:36:37.159Z,996.22
2022-12-23T04:37:37.163Z,996.27
2022-12-23T04:38:37.120Z,996.29
2022-12-23T04:39:37.097Z,996.22
2022-12-23T04:40:37.083Z,996.23
2022-12-23T04:41:37.086Z,996.23
2022-12-23T04:42:37.108Z,996.21
2022-12-23T04:43:37.050Z,996.19
2022-12-23T04:44:37.052Z,996.20
2022-12-23T04:45:37.030Z,996.19
2022-12-23T04:46:37.102Z,996.14
2022-12-23T04:47:37.052Z,996.12
2022-12-23T04:48:36.992Z,996.09
2022-12-23T04:49:36.986Z,996.12
2022-12-23T04:50:36.980Z,996.08
2022-12-23T04:51:36.954Z,996.11
2022-12-23T04:52:37.000Z,996.10
2022-12-23T04:53:36.934Z,996.11
2022-12-23T04:54:40.610Z,996.12
2022-12-23T04:55:37.897Z,996.12
2022-12-23T04:56:36.897Z,996.14
2022-12-23T04:57:36.897Z,996.16
2022-12-23T04:58:36.930Z,996.15
2022-12-23T04:59:36.864Z,996.14
2022-12-23T05:00:39.698Z,996.14
2022-12-23T05:01:36.945Z,996.15
2022-12-23T05:02:36.978Z,996.15
2022-12-23T05:03:36.909Z,996.15
2022-12-23T05:04:36.856Z,996.07
2022-12-23T05:05:36.788Z,996.09
2022-12-23T05:06:36.785Z,996.11
2022-12-23T05:07:36.767Z,996.12
2022-12-23T05:08:36.796Z,996.06
2022-12-23T05:09:36.750Z,996.11
2022-12-23T05:10:36.734Z,996.09
2022-12-23T05:11:41.820Z,996.07
2022-12-23T05:12:37.743Z,996.05
2022-12-23T05:13:36.744Z,996.05
2022-12-23T05:14:36.701Z,996.07
2022-12-23T05:15:36.675Z,996.06
2022-12-23T05:16:36.700Z,996.05
2022-12-23T05:17:36.650Z,996.07
2022-12-23T05:18:36.689Z,996.02
2022-12-23T05:19:36.644Z,996.04
2022-12-23T05:20:36.617Z,996.03
2022-12-23T05:21:36.638Z,996.05
2022-12-23T05:22:36.583Z,996.01
2022-12-23T05:23:36.613Z,996.05
2022-12-23T05:24:36.570Z,996.09
2022-12-23T05:25:36.547Z,996.03
2022-12-23T05:26:36.546Z,996.04
2022-12-23T05:27:36.531Z,996.03
2022-12-23T05:28:36.569Z,996.03
2022-12-23T05:29:36.516Z,996.05
2022-12-23T05:30:36.500Z,996.03
2022-12-23T05:31:36.534Z,996.03
2022-12-23T05:32:36.467Z,996.02
2022-12-23T05:33:36.583Z,996.05
2022-12-23T05:34:36.439Z,996.02
2022-12-23T05:35:36.440Z,996.02
2022-12-23T05:36:36.425Z,996.02
2022-12-23T05:37:36.419Z,995.99
2022-12-23T05:38:36.446Z,995.96
2022-12-23T05:39:36.384Z,996.03
2022-12-23T05:40:36.394Z,996.01
2022-12-23T05:41:36.364Z,996.03
2022-12-23T05:42:36.374Z,996.06
2022-12-23T05:43:36.399Z,996.04
2022-12-23T05:44:36.337Z,996.03
2022-12-23T05:45:36.352Z,996.06
2022-12-23T05:46:36.363Z,996.07
2022-12-23T05:47:36.299Z,996.08
2022-12-23T05:48:36.342Z,996.12
2022-12-23T05:49:36.274Z,996.11
2022-12-23T05:50:36.286Z,996.11
2022-12-23T05:51:36.235Z,996.17
2022-12-23T05:52:36.236Z,996.12
2022-12-23T05:53:36.294Z,996.16
2022-12-23T05:54:36.216Z,996.18
2022-12-23T05:55:36.193Z,996.20
2022-12-23T05:56:36.206Z,996.21
2022-12-23T05:57:36.230Z,996.19
2022-12-23T05:58:36.214Z,996.21
2022-12-23T05:59:36.167Z,996.20
2022-12-23T06:00:36.154Z,996.18
2022-12-23T06:01:36.171Z,996.21
2022-12-23T06:02:36.445Z,996.21
2022-12-23T06:03:36.320Z,996.19
2022-12-23T06:04:36.092Z,996.19
2022-12-23T06:05:36.097Z,996.22
2022-12-23T06:06:36.077Z,996.17
2022-12-23T06:07:36.055Z,996.15
2022-12-23T06:08:36.129Z,996.12
2022-12-23T06:09:36.061Z,996.11
2022-12-23T06:10:36.045Z,996.14
2022-12-23T06:11:36.013Z,996.11
2022-12-23T06:12:36.005Z,996.11
2022-12-23T06:13:36.029Z,996.14
2022-12-23T06:14:35.988Z,996.17
2022-12-23T06:15:35.969Z,996.19
2022-12-23T06:16:36.044Z,996.19
2022-12-23T06:17:35.967Z,996.21
2022-12-23T06:18:35.967Z,996.22
2022-12-23T06:19:35.929Z,996.20
2022-12-23T06:20:35.920Z,996.22
2022-12-23T06:21:35.889Z,996.21
2022-12-23T06:22:35.890Z,996.23
2022-12-23T06:23:35.909Z,996.21
2022-12-23T06:24:35.864Z,996.18
2022-12-23T06:25:35.856Z,996.18
2022-12-23T06:26:35.846Z,996.21
2022-12-23T06:27:35.835Z,996.24
2022-12-23T06:28:35.879Z,996.18
2022-12-23T06:29:35.801Z,996.17
2022-12-23T06:30:35.801Z,996.29
2022-12-23T06:31:35.790Z,996.27
2022-12-23T06:32:38.609Z,996.27
2022-12-23T06:33:35.793Z,996.29
2022-12-23T06:34:35.747Z,996.25
2022-12-23T06:35:35.737Z,996.27
2022-12-23T06:36:35.724Z,996.33
2022-12-23T06:37:35.701Z,996.30
2022-12-23T06:38:35.745Z,996.37
2022-12-23T06:39:35.696Z,996.34
2022-12-23T06:40:35.692Z,996.33
2022-12-23T06:41:35.653Z,996.36
2022-12-23T06:42:35.649Z,996.34
2022-12-23T06:43:35.653Z,996.40
2022-12-23T06:44:35.680Z,996.43
2022-12-23T06:45:35.632Z,996.44
2022-12-23T06:46:35.598Z,996.44
2022-12-23T06:47:35.594Z,996.45
2022-12-23T06:48:35.583Z,996.48
2022-12-23T06:49:35.618Z,996.44
2022-12-23T06:50:35.558Z,996.41
2022-12-23T06:51:35.574Z,996.48
2022-12-23T06:52:35.552Z,996.49
2022-12-23T06:53:35.553Z,996.49
2022-12-23T06:54:35.574Z,996.51
2022-12-23T06:55:35.506Z,996.52
2022-12-23T06:56:35.486Z,996.53
2022-12-23T06:57:35.487Z,996.52
2022-12-23T06:58:35.470Z,996.51
2022-12-23T06:59:35.572Z,996.53
2022-12-23T07:00:35.452Z,996.53
2022-12-23T07:01:35.505Z,996.57
2022-12-23T07:02:35.565Z,996.58
2022-12-23T07:03:35.479Z,996.59
2022-12-23T07:04:35.436Z,996.58
2022-12-23T07:05:37.556Z,996.60
2022-12-23T07:06:35.355Z,996.61
2022-12-23T07:07:35.354Z,996.56
2022-12-23T07:08:35.362Z,996.58
2022-12-23T07:09:35.411Z,996.60
2022-12-23T07:10:35.327Z,996.59
2022-12-23T07:11:35.323Z,996.62
2022-12-23T07:12:35.323Z,996.63
2022-12-23T07:13:35.302Z,996.66
2022-12-23T07:14:35.384Z,996.74
2022-12-23T07:15:35.285Z,996.66
2022-12-23T07:16:35.316Z,996.67
2022-12-23T07:17:35.233Z,996.72
2022-12-23T07:18:35.220Z,996.73
2022-12-23T07:19:35.256Z,996.74
2022-12-23T07:20:35.199Z,996.69
2022-12-23T07:21:35.200Z,996.71
2022-12-23T07:22:35.282Z,996.66
2022-12-23T07:23:35.189Z,996.72
2022-12-23T07:24:35.233Z,996.72
2022-12-23T07:25:35.175Z,996.70
2022-12-23T07:26:35.147Z,996.74
2022-12-23T07:27:35.141Z,996.63
2022-12-23T07:28:35.122Z,996.66
2022-12-23T07:29:35.149Z,996.71
2022-12-23T07:30:35.123Z,996.72
2022-12-23T07:31:39.320Z,996.70
2022-12-23T07:32:36.076Z,996.71
2022-12-23T07:33:35.046Z,996.73
2022-12-23T07:34:35.092Z,996.77
2022-12-23T07:35:35.043Z,996.77
2022-12-23T07:36:35.053Z,996.77
2022-12-23T07:37:35.014Z,996.79
2022-12-23T07:38:35.016Z,996.78
2022-12-23T07:39:35.043Z,996.80
2022-12-23T07:40:35.019Z,996.84
2022-12-23T07:41:34.989Z,996.82
2022-12-23T07:42:50.380Z,996.85
2022-12-23T07:43:35.975Z,996.77
2022-12-23T07:44:35.004Z,996.81
2022-12-23T07:45:34.965Z,996.81
2022-12-23T07:46:34.961Z,996.86
2022-12-23T07:47:34.897Z,996.83
2022-12-23T07:48:34.898Z,996.87
2022-12-23T07:49:34.916Z,996.89
2022-12-23T07:50:34.889Z,996.92
2022-12-23T07:51:34.871Z,996.95
2022-12-23T07:52:34.852Z,997.00
2022-12-23T07:53:34.843Z,996.96
2022-12-23T07:54:34.882Z,996.95
2022-12-23T07:55:34.816Z,996.99
2022-12-23T07:56:34.810Z,996.99
2022-12-23T07:57:34.830Z,997.00
2022-12-23T07:58:34.781Z,997.02
2022-12-23T07:59:34.819Z,997.02
2022-12-23T08:00:34.761Z,997.06
2022-12-23T08:01:34.870Z,997.09
2022-12-23T08:02:34.942Z,997.04
2022-12-23T08:03:34.825Z,997.01
2022-12-23T08:04:35.456Z,997.01
2022-12-23T08:05:34.707Z,997.05
2022-12-23T08:06:34.693Z,996.97
2022-12-23T08:07:34.676Z,997.02
2022-12-23T08:08:34.682Z,996.97
2022-12-23T08:09:34.688Z,996.95
2022-12-23T08:10:34.644Z,996.94
2022-12-23T08:11:34.635Z,996.94
2022-12-23T08:12:34.598Z,996.93
2022-12-23T08:13:34.595Z,996.92
2022-12-23T08:14:34.626Z,996.96
2022-12-23T08:15:34.586Z,996.92
2022-12-23T08:16:41.261Z,996.90
2022-12-23T08:17:35.557Z,996.92
2022-12-23T08:18:34.536Z,996.91
2022-12-23T08:19:34.604Z,996.95
2022-12-23T08:20:34.531Z,996.98
2022-12-23T08:21:34.547Z,996.98
2022-12-23T08:22:34.503Z,996.95
2022-12-23T08:23:34.526Z,996.95
2022-12-23T08:24:34.542Z,996.98
2022-12-23T08:25:34.482Z,996.93
2022-12-23T08:26:34.464Z,996.99
2022-12-23T08:27:34.439Z,996.97
2022-12-23T08:28:34.448Z,997.05
2022-12-23T08:29:36.586Z,997.01
2022-12-23T08:30:34.481Z,997.02
2022-12-23T08:31:34.492Z,997.04
2022-12-23T08:32:34.424Z,997.07
2022-12-23T08:33:34.380Z,997.09
2022-12-23T08:34:34.436Z,997.13
2022-12-23T08:35:34.339Z,997.13
2022-12-23T08:36:34.344Z,997.14
2022-12-23T08:37:34.335Z,997.13
2022-12-23T08:38:34.334Z,997.13
2022-12-23T08:39:34.375Z,997.14
2022-12-23T08:40:34.301Z,997.15
2022-12-23T08:41:34.306Z,997.15
2022-12-23T08:42:34.257Z,997.14
2022-12-23T08:43:36.089Z,997.16
2022-12-23T08:44:34.303Z,997.17
2022-12-23T08:45:34.245Z,997.18
2022-12-23T08:46:34.291Z,997.14
2022-12-23T08:47:34.231Z,997.18
2022-12-23T08:48:34.207Z,997.19
2022-12-23T08:49:34.235Z,997.17
2022-12-23T08:50:34.204Z,997.19
2022-12-23T08:51:34.182Z,997.19
2022-12-23T08:52:34.162Z,997.21
2022-12-23T08:53:34.165Z,997.24
2022-12-23T08:54:34.169Z,997.22
2022-12-23T08:55:34.133Z,997.26
2022-12-23T08:56:34.122Z,997.25
2022-12-23T08:57:34.092Z,997.21
2022-12-23T08:58:34.102Z,997.30
2022-12-23T08:59:34.143Z,997.24
2022-12-23T09:00:34.063Z,997.25
2022-12-23T09:01:34.215Z,997.28
2022-12-23T09:02:34.380Z,997.31
2022-12-23T09:03:34.092Z,997.30
2022-12-23T09:04:34.099Z,997.35
2022-12-23T09:05:34.022Z,997.34
2022-12-23T09:06:34.045Z,997.38
2022-12-23T09:07:34.026Z,997.39
2022-12-23T09:08:33.995Z,997.40
2022-12-23T09:09:34.017Z,997.45
2022-12-23T09:10:33.955Z,997.38
2022-12-23T09:11:33.952Z,997.36
2022-12-23T09:12:33.934Z,997.37
2022-12-23T09:13:35.834Z,997.34
2022-12-23T09:14:33.892Z,997.32
2022-12-23T09:15:33.984Z,997.33
2022-12-23T09:16:33.959Z,997.34
2022-12-23T09:17:33.906Z,997.33
2022-12-23T09:18:33.843Z,997.33
2022-12-23T09:19:33.877Z,997.34
2022-12-23T09:20:34.034Z,997.40
2022-12-23T09:21:33.865Z,997.34
2022-12-23T09:22:33.816Z,997.35
2022-12-23T09:23:33.832Z,997.36
2022-12-23T09:24:33.789Z,997.35
2022-12-23T09:25:33.845Z,997.29
2022-12-23T09:26:33.768Z,997.26
2022-12-23T09:27:33.770Z,997.34
2022-12-23T09:28:33.757Z,997.30
2022-12-23T09:29:33.732Z,997.39
2022-12-23T09:30:33.782Z,997.36
2022-12-23T09:31:37.426Z,997.39
2022-12-23T09:32:33.699Z,997.41
2022-12-23T09:33:33.814Z,997.39
2022-12-23T09:34:33.678Z,997.44
2022-12-23T09:35:33.708Z,997.46
2022-12-23T09:36:33.676Z,997.45
2022-12-23T09:37:33.637Z,997.49
2022-12-23T09:38:33.627Z,997.53
2022-12-23T09:39:33.633Z,997.50
2022-12-23T09:40:33.667Z,997.50
2022-12-23T09:41:33.609Z,997.45
2022-12-23T09:42:33.565Z,997.45
2022-12-23T09:43:33.584Z,997.43
2022-12-23T09:44:33.551Z,997.44
2022-12-23T09:45:40.164Z,997.48
2022-12-23T09:46:34.731Z,997.49
2022-12-23T09:47:33.548Z,997.52
2022-12-23T09:48:33.503Z,997.52
2022-12-23T09:49:33.507Z,997.52
2022-12-23T09:50:33.543Z,997.57
2022-12-23T09:51:33.499Z,997.54
2022-12-23T09:52:33.488Z,997.54
2022-12-23T09:53:33.471Z,997.63
2022-12-23T09:54:33.450Z,997.56
2022-12-23T09:55:33.476Z,997.56
2022-12-23T09:56:33.409Z,997.53
2022-12-23T09:57:33.421Z,997.50
2022-12-23T09:58:33.389Z,997.47
2022-12-23T09:59:33.396Z,997.53
2022-12-23T10:00:33.424Z,997.53
2022-12-23T10:01:33.474Z,997.52
2022-12-23T10:02:33.606Z,997.58
2022-12-23T10:03:33.673Z,997.55
2022-12-23T10:04:33.343Z,997.58
2022-12-23T10:05:33.352Z,997.55
2022-12-23T10:06:33.293Z,997.58
2022-12-23T10:07:33.320Z,997.54
2022-12-23T10:08:33.267Z,997.60
2022-12-23T10:09:33.286Z,997.61
2022-12-23T10:10:33.325Z,997.58
2022-12-23T10:11:33.283Z,997.59
2022-12-23T10:12:39.434Z,997.62
2022-12-23T10:13:34.220Z,997.59
2022-12-23T10:14:33.198Z,997.58
2022-12-23T10:15:33.255Z,997.58
2022-12-23T10:16:33.231Z,997.58
2022-12-23T10:17:33.184Z,997.64
2022-12-23T10:18:33.189Z,997.60
2022-12-23T10:19:33.158Z,997.62
2022-12-23T10:20:33.207Z,997.59
2022-12-23T10:21:33.144Z,997.65
2022-12-23T10:22:33.125Z,997.67
2022-12-23T10:23:33.134Z,997.65
2022-12-23T10:24:33.109Z,997.64
2022-12-23T10:25:33.139Z,997.60
2022-12-23T10:26:33.064Z,997.65
2022-12-23T10:27:33.087Z,997.61
2022-12-23T10:28:33.070Z,997.59
2022-12-23T10:29:33.033Z,997.66
2022-12-23T10:31:41.613Z,997.76
2022-12-23T10:32:34.048Z,997.75
2022-12-23T10:33:32.991Z,997.71
2022-12-23T10:34:38.269Z,997.73
2022-12-23T10:35:34.043Z,997.74
2022-12-23T10:36:32.972Z,997.75
2022-12-23T10:37:32.955Z,997.77
2022-12-23T10:38:32.948Z,997.69
2022-12-23T10:39:32.955Z,997.73
2022-12-23T10:40:33.000Z,997.65
2022-12-23T10:41:32.935Z,997.66
2022-12-23T10:42:32.915Z,997.65
2022-12-23T10:43:32.877Z,997.67
2022-12-23T10:44:32.852Z,997.65
2022-12-23T10:45:32.951Z,997.70
2022-12-23T10:46:32.946Z,997.67
2022-12-23T10:47:32.836Z,997.68
2022-12-23T10:48:33.068Z,997.70
2022-12-23T10:49:32.824Z,997.68
2022-12-23T10:50:32.849Z,997.65
2022-12-23T10:51:32.804Z,997.69
2022-12-23T10:52:32.774Z,997.69
2022-12-23T10:53:32.815Z,997.64
2022-12-23T10:54:32.764Z,997.74
2022-12-23T10:55:34.055Z,997.70
2022-12-23T10:56:32.723Z,997.72
2022-12-23T10:57:32.716Z,997.70
2022-12-23T10:58:32.728Z,997.69
2022-12-23T10:59:32.712Z,997.68
2022-12-23T11:00:32.778Z,997.65
2022-12-23T11:01:32.826Z,997.65
2022-12-23T11:02:32.825Z,997.58
2022-12-23T11:03:32.904Z,997.57
2022-12-23T11:04:32.647Z,997.61
2022-12-23T11:05:32.636Z,997.54
2022-12-23T11:06:37.135Z,997.58
2022-12-23T11:07:49.141Z,997.53
2022-12-23T11:08:33.609Z,997.56
2022-12-23T11:09:32.601Z,997.48
2022-12-23T11:10:32.561Z,997.49
2022-12-23T11:11:32.617Z,997.50
2022-12-23T11:12:36.024Z,997.45
2022-12-23T11:13:33.533Z,997.48
2022-12-23T11:14:32.538Z,997.45
2022-12-23T11:15:32.533Z,997.42
2022-12-23T11:16:32.634Z,997.46
2022-12-23T11:17:32.477Z,997.42
2022-12-23T11:18:35.161Z,997.40
2022-12-23T11:19:33.472Z,997.42
2022-12-23T11:20:32.477Z,997.39
2022-12-23T11:21:32.497Z,997.36
2022-12-23T11:22:32.424Z,997.37
2022-12-23T11:23:32.442Z,997.41
2022-12-23T11:24:33.650Z,997.43
2022-12-23T11:25:32.396Z,997.45
2022-12-23T11:26:32.416Z,997.43
2022-12-23T11:27:32.414Z,997.43
2022-12-23T11:28:32.381Z,997.45
2022-12-23T11:29:32.351Z,997.47
2022-12-23T11:30:32.338Z,997.47
2022-12-23T11:31:32.426Z,997.55
2022-12-23T11:32:32.326Z,997.45
2022-12-23T11:33:32.326Z,997.50
2022-12-23T11:34:32.289Z,997.53
2022-12-23T11:35:32.319Z,997.50
2022-12-23T11:36:32.319Z,997.54
2022-12-23T11:37:32.265Z,997.61
2022-12-23T11:38:32.254Z,997.60
2022-12-23T11:39:32.243Z,997.61
2022-12-23T11:40:32.248Z,997.64
2022-12-23T11:41:32.271Z,997.65
2022-12-23T11:42:32.211Z,997.68
2022-12-23T11:43:32.201Z,997.65
2022-12-23T11:44:32.189Z,997.66
2022-12-23T11:45:32.245Z,997.63
2022-12-23T11:46:32.264Z,997.62
2022-12-23T11:47:32.201Z,997.61
2022-12-23T11:48:32.133Z,997.63
2022-12-23T11:49:32.149Z,997.62
2022-12-23T11:50:32.113Z,997.69
2022-12-23T11:51:32.155Z,997.73
2022-12-23T11:52:32.078Z,997.73
2022-12-23T11:53:32.079Z,997.80
2022-12-23T11:54:32.045Z,997.84
2022-12-23T11:55:32.064Z,997.77
2022-12-23T11:56:32.271Z,997.84
2022-12-23T11:57:32.044Z,997.87
2022-12-23T11:58:32.067Z,997.92
2022-12-23T11:59:32.040Z,997.93
2022-12-23T12:00:32.006Z,997.95
2022-12-23T12:01:32.042Z,998.05
2022-12-23T12:02:31.999Z,998.02
2022-12-23T12:03:32.061Z,998.06
2022-12-23T12:04:31.953Z,998.10
2022-12-23T12:05:31.939Z,998.17
2022-12-23T12:06:31.994Z,998.15
2022-12-23T12:07:31.929Z,998.11
2022-12-23T12:08:31.912Z,998.14
2022-12-23T12:09:31.903Z,998.27
2022-12-23T12:10:31.913Z,998.25
2022-12-23T12:11:31.916Z,998.25
2022-12-23T12:12:31.893Z,998.24
2022-12-23T12:13:31.878Z,998.27
2022-12-23T12:14:31.835Z,998.30
2022-12-23T12:15:31.848Z,998.31
2022-12-23T12:16:31.925Z,998.29
2022-12-23T12:17:31.824Z,998.24
2022-12-23T12:18:31.805Z,998.23
2022-12-23T12:19:31.767Z,998.31
2022-12-23T12:20:31.756Z,998.28
2022-12-23T12:21:31.808Z,998.35
2022-12-23T12:22:31.750Z,998.36
2022-12-23T12:23:31.748Z,998.36
2022-12-23T12:24:31.728Z,998.39
2022-12-23T12:25:36.367Z,998.40
2022-12-23T12:26:32.747Z,998.34
2022-12-23T12:27:31.694Z,998.35
2022-12-23T12:28:31.686Z,998.45
2022-12-23T12:29:31.665Z,998.43